Albright, Illinois
Current Conditions -  °F | °C
As of 12:35 AM on Monday 24 Nov 2014 (Local Time) from KPRG Reporting Station
Moderate Rain Moderate Rain  
Wind Chill: 53°   Ceiling: 400
Heat Index: 53°   Visibility: 5mi
Dew Point: 53°   Wind: 15mph
Humidity: 100%   Direction: 210°SSW
Pressure: 29.22"   Gusts: 24mph
Location:  39.4361°N, 87.7043°W
Report Text: KPRG 240635Z AUTO 21013G21KT 5SM RA OVC004 12/12 A2922 RMK AO2 LTG DSNT W T01170117
Loading
Personal Weather Stations






























Interactive Weather Map New forecast layout! Learn more

10-Day Weather Forecast

Advertisements
Track Severe Weather on mobile